Time;durP1;ratioP1;P1;durP2;ratioP2;P2;SDS_P1;SDS_P2;PMS_P1;PMS_P2;Temp;Humidity;BMP_temperature;BMP_pressure;BME280_temperature;BME280_humidity;BME280_pressure;Samples;Min_cycle;Max_cycle;Signal;HPM_P1;HPM_P2
2021/12/25 00:00:05;;;;;;;;;;;9.00;99.90;;;;;;7341861;19;113504;-87
2021/12/25 00:02:34;;;;;;;;;;;8.90;99.90;;;;;;7348289;19;115483;-86
2021/12/25 00:05:01;;;;;;;;;;;8.90;99.90;;;;;;7342112;19;109524;-87
2021/12/25 00:07:28;;;;;;;;;;;9.00;99.90;;;;;;7339810;19;112096;-86
2021/12/25 00:09:55;;;;;;;;;;;9.00;99.90;;;;;;7341374;19;109345;-87
2021/12/25 00:12:22;;;;;;;;;;;8.90;99.90;;;;;;7342108;19;113884;-87
2021/12/25 00:14:49;;;;;;;;;;;8.90;99.90;;;;;;7340291;19;112154;-86
2021/12/25 00:17:16;;;;;;;;;;;9.00;99.90;;;;;;7343748;19;109703;-86
2021/12/25 00:19:43;;;;;;;;;;;9.00;99.90;;;;;;7342642;19;109694;-87
2021/12/25 00:22:10;;;;;;;;;;;8.90;99.90;;;;;;7343252;19;112304;-87
2021/12/25 00:24:42;;;;;;;;;;;8.90;99.90;;;;;;7348039;19;109588;-87
2021/12/25 00:27:22;;;;;;;;;;;8.90;99.90;;;;;;7340968;19;112176;-87
2021/12/25 00:35:14;;;;;;;;;;;8.80;99.90;;;;;;7350712;19;112387;-88
2021/12/25 00:37:41;;;;;;;;;;;8.90;99.90;;;;;;7347805;19;109310;-87
2021/12/25 00:40:08;;;;;;;;;;;8.90;99.90;;;;;;7348962;19;113536;-87
2021/12/25 00:42:35;;;;;;;;;;;8.80;99.90;;;;;;7347299;19;115258;-87
2021/12/25 00:45:02;;;;;;;;;;;8.90;99.90;;;;;;7351793;19;109410;-87
2021/12/25 00:47:29;;;;;;;;;;;8.80;99.90;;;;;;7347646;19;112957;-87
2021/12/25 00:49:56;;;;;;;;;;;8.80;99.90;;;;;;7349855;19;109436;-87
2021/12/25 00:52:23;;;;;;;;;;;8.80;99.90;;;;;;7347935;19;111297;-88
2021/12/25 00:54:50;;;;;;;;;;;8.70;99.90;;;;;;7348370;19;111408;-86
2021/12/25 00:57:17;;;;;;;;;;;8.70;99.90;;;;;;7350403;19;109336;-88
2021/12/25 00:59:44;;;;;;;;;;;8.70;99.90;;;;;;7347209;19;112121;-87
2021/12/25 01:02:11;;;;;;;;;;;8.70;99.90;;;;;;7347238;19;110281;-87
2021/12/25 01:04:38;;;;;;;;;;;8.80;99.90;;;;;;7346889;19;109365;-86
2021/12/25 01:07:05;;;;;;;;;;;8.90;99.90;;;;;;7351702;19;111006;-88
2021/12/25 01:09:32;;;;;;;;;;;8.90;99.90;;;;;;7347686;19;109421;-87
2021/12/25 01:11:59;;;;;;;;;;;8.90;99.90;;;;;;7348877;19;109347;-87
2021/12/25 01:14:34;;;;;;;;;;;8.90;99.90;;;;;;7347166;19;111958;-87
2021/12/25 01:17:24;;;;;;;;;;;8.90;99.90;;;;;;7347010;19;109336;-87
2021/12/25 01:25:53;;;;;;;;;;;8.60;99.90;;;;;;7349604;19;109509;-87
2021/12/25 01:31:10;;;;;;;;;;;8.40;99.90;;;;;;7352543;19;114909;-88
2021/12/25 01:49:51;;;;;;;;;;;8.20;99.90;;;;;;7347999;19;113982;-86
2021/12/25 01:52:19;;;;;;;;;;;8.20;99.90;;;;;;7348327;19;113179;-86
2021/12/25 01:54:46;;;;;;;;;;;8.20;99.90;;;;;;7352951;19;109709;-87
2021/12/25 01:57:13;;;;;;;;;;;8.20;99.90;;;;;;7346079;19;112965;-87
2021/12/25 01:59:40;;;;;;;;;;;8.20;99.90;;;;;;7348395;19;109176;-87
2021/12/25 02:02:07;;;;;;;;;;;8.20;99.90;;;;;;7345268;19;109970;-88
2021/12/25 02:04:34;;;;;;;;;;;8.30;99.90;;;;;;7345323;19;115682;-87
2021/12/25 02:07:01;;;;;;;;;;;8.30;99.90;;;;;;7345643;19;109293;-87
2021/12/25 02:09:28;;;;;;;;;;;8.30;99.90;;;;;;7346229;19;113560;-87
2021/12/25 02:11:55;;;;;;;;;;;8.30;99.90;;;;;;7344451;19;115039;-86
2021/12/25 02:14:22;;;;;;;;;;;8.20;99.90;;;;;;7346834;19;109325;-88
2021/12/25 02:16:55;;;;;;;;;;;8.20;99.90;;;;;;7351941;19;113854;-86
2021/12/25 02:19:37;;;;;;;;;;;8.10;99.90;;;;;;7345039;19;109374;-87
2021/12/25 02:22:04;;;;;;;;;;;8.10;99.90;;;;;;7346936;19;110496;-85
2021/12/25 02:24:31;;;;;;;;;;;8.10;99.90;;;;;;7344479;19;112020;-87
2021/12/25 02:26:58;;;;;;;;;;;8.10;99.90;;;;;;7345412;19;109785;-87
2021/12/25 02:29:25;;;;;;;;;;;8.20;99.90;;;;;;7344782;19;110926;-86
2021/12/25 02:31:52;;;;;;;;;;;8.20;99.90;;;;;;7346780;19;114414;-86
2021/12/25 02:34:19;;;;;;;;;;;8.20;99.90;;;;;;7346648;19;109197;-86
2021/12/25 02:36:46;;;;;;;;;;;8.20;99.90;;;;;;7351307;19;109618;-86
2021/12/25 02:39:13;;;;;;;;;;;8.20;99.90;;;;;;7344352;19;109415;-88
2021/12/25 02:41:40;;;;;;;;;;;8.00;99.90;;;;;;7347321;19;110993;-87
2021/12/25 02:44:07;;;;;;;;;;;7.80;99.90;;;;;;7344506;19;112240;-87
2021/12/25 02:46:35;;;;;;;;;;;7.80;99.90;;;;;;7346162;19;109353;-88
2021/12/25 02:49:02;;;;;;;;;;;7.80;99.90;;;;;;7341810;19;114061;-87
2021/12/25 02:51:29;;;;;;;;;;;7.70;99.90;;;;;;7344221;19;112290;-86
2021/12/25 02:53:56;;;;;;;;;;;7.80;99.90;;;;;;7347166;19;109478;-87
2021/12/25 02:56:23;;;;;;;;;;;7.70;99.90;;;;;;7343346;19;111579;-86
2021/12/25 02:58:50;;;;;;;;;;;7.50;99.90;;;;;;7350387;19;111954;-85
2021/12/25 03:01:18;;;;;;;;;;;7.50;99.90;;;;;;7344975;19;110899;-87
2021/12/25 03:03:46;;;;;;;;;;;7.50;99.90;;;;;;7345217;19;112420;-87
2021/12/25 03:06:13;;;;;;;;;;;7.60;99.90;;;;;;7344122;19;109989;-88
2021/12/25 03:08:40;;;;;;;;;;;7.60;99.90;;;;;;7343457;19;110367;-87
2021/12/25 03:11:08;;;;;;;;;;;7.60;99.90;;;;;;7343269;19;112318;-86
2021/12/25 03:16:20;;;;;;;;;;;7.60;99.90;;;;;;7346628;19;114838;-86
2021/12/25 03:18:48;;;;;;;;;;;7.50;99.90;;;;;;7343263;19;111916;-86
2021/12/25 03:21:19;;;;;;;;;;;7.50;99.90;;;;;;7350313;19;109637;-89
2021/12/25 03:23:47;;;;;;;;;;;7.50;99.90;;;;;;7344589;19;114762;-88
2021/12/25 03:26:14;;;;;;;;;;;7.50;99.90;;;;;;7345855;19;109336;-87
2021/12/25 03:28:44;;;;;;;;;;;7.50;99.90;;;;;;7341170;19;110911;-87
2021/12/25 03:31:15;;;;;;;;;;;7.50;99.90;;;;;;7345204;19;110356;-87
2021/12/25 03:33:47;;;;;;;;;;;7.40;99.90;;;;;;7344525;19;109395;-86
2021/12/25 03:36:14;;;;;;;;;;;7.30;99.90;;;;;;7344132;19;109466;-86
2021/12/25 03:38:41;;;;;;;;;;;7.30;99.90;;;;;;7344654;19;114992;-86
2021/12/25 03:41:08;;;;;;;;;;;7.30;99.90;;;;;;7342856;19;109621;-86
2021/12/25 03:43:38;;;;;;;;;;;7.20;99.90;;;;;;7349059;19;111393;-88
2021/12/25 03:46:06;;;;;;;;;;;7.30;99.90;;;;;;7343943;19;109449;-86
2021/12/25 04:00:00;;;;;;;;;;;7.20;99.90;;;;;;7342394;19;110472;-87
2021/12/25 04:02:34;;;;;;;;;;;7.20;99.90;;;;;;7342963;19;109274;-87
2021/12/25 04:05:03;;;;;;;;;;;7.20;99.90;;;;;;7342471;19;114393;-87
2021/12/25 04:10:03;;;;;;;;;;;7.30;99.90;;;;;;7350604;19;111705;-88
2021/12/25 04:12:30;;;;;;;;;;;7.30;99.90;;;;;;7348296;19;111158;-87
2021/12/25 04:14:57;;;;;;;;;;;7.30;99.90;;;;;;7350122;19;109470;-87
2021/12/25 04:17:24;;;;;;;;;;;7.30;99.90;;;;;;7348330;19;110948;-87
2021/12/25 04:19:51;;;;;;;;;;;7.20;99.90;;;;;;7351231;19;111886;-87
2021/12/25 04:22:26;;;;;;;;;;;7.20;99.90;;;;;;7349541;19;109715;-87
2021/12/25 04:24:53;;;;;;;;;;;7.10;99.90;;;;;;7351074;19;111136;-87
2021/12/25 04:27:20;;;;;;;;;;;7.10;99.90;;;;;;7347142;19;111959;-87
2021/12/25 04:29:57;;;;;;;;;;;7.00;99.90;;;;;;7356364;19;109379;-86
2021/12/25 05:05:21;;;;;;;;;;;6.70;99.90;;;;;;7347405;19;109383;-87
2021/12/25 05:07:48;;;;;;;;;;;6.60;99.90;;;;;;7348254;19;111292;-87
2021/12/25 05:10:15;;;;;;;;;;;6.60;99.90;;;;;;7349296;19;111198;-87
2021/12/25 05:12:42;;;;;;;;;;;6.60;99.90;;;;;;7346857;19;109231;-86
2021/12/25 05:15:09;;;;;;;;;;;6.50;99.90;;;;;;7353620;19;111244;-87
2021/12/25 05:17:36;;;;;;;;;;;6.50;99.90;;;;;;7346475;19;109424;-87
2021/12/25 05:20:04;;;;;;;;;;;6.40;99.90;;;;;;7346443;19;114730;-88
2021/12/25 05:22:31;;;;;;;;;;;6.40;99.90;;;;;;7347952;19;112650;-87
2021/12/25 05:24:58;;;;;;;;;;;6.40;99.90;;;;;;7347938;19;109486;-88
2021/12/25 05:27:25;;;;;;;;;;;6.40;99.90;;;;;;7349783;19;110918;-87
2021/12/25 05:29:52;;;;;;;;;;;6.40;99.90;;;;;;7345112;19;111810;-87
2021/12/25 05:32:19;;;;;;;;;;;6.30;99.90;;;;;;7349159;19;109335;-88
2021/12/25 05:34:46;;;;;;;;;;;6.20;99.90;;;;;;7347599;19;113481;-88
2021/12/25 05:37:16;;;;;;;;;;;6.20;99.90;;;;;;7352181;19;114336;-88
2021/12/25 05:39:49;;;;;;;;;;;6.10;99.90;;;;;;7347184;19;111555;-87
2021/12/25 05:42:20;;;;;;;;;;;6.10;99.90;;;;;;7346848;19;112084;-85
2021/12/25 05:44:47;;;;;;;;;;;6.00;99.90;;;;;;7347639;19;109515;-86
2021/12/25 05:47:14;;;;;;;;;;;6.00;99.90;;;;;;7347159;19;110200;-87
2021/12/25 05:49:41;;;;;;;;;;;6.00;99.90;;;;;;7344561;19;115784;-87
2021/12/25 05:52:08;;;;;;;;;;;6.00;99.90;;;;;;7348247;19;109358;-88
2021/12/25 05:54:35;;;;;;;;;;;5.90;99.90;;;;;;7346840;19;111469;-87
2021/12/25 05:57:02;;;;;;;;;;;5.80;99.90;;;;;;7346043;19;110549;-88
2021/12/25 05:59:29;;;;;;;;;;;5.80;99.90;;;;;;7352752;19;109643;-87
2021/12/25 06:01:56;;;;;;;;;;;5.80;99.90;;;;;;7346026;19;112132;-88
2021/12/25 06:04:23;;;;;;;;;;;5.70;99.90;;;;;;7347300;19;109377;-88
2021/12/25 06:06:50;;;;;;;;;;;5.70;99.90;;;;;;7346540;19;110843;-88
2021/12/25 06:09:18;;;;;;;;;;;5.60;99.90;;;;;;7344958;19;112660;-87
2021/12/25 06:11:45;;;;;;;;;;;5.60;99.90;;;;;;7346340;19;109365;-87
2021/12/25 06:14:20;;;;;;;;;;;5.50;99.90;;;;;;7347310;19;111216;-87
2021/12/25 06:16:48;;;;;;;;;;;5.50;99.90;;;;;;7346414;19;114044;-87
2021/12/25 06:19:15;;;;;;;;;;;5.40;99.90;;;;;;7345704;19;109455;-87
2021/12/25 06:21:43;;;;;;;;;;;5.30;99.90;;;;;;7351774;19;111481;-86
2021/12/25 06:24:10;;;;;;;;;;;5.30;99.90;;;;;;7345771;19;109331;-88
2021/12/25 06:26:38;;;;;;;;;;;5.30;99.90;;;;;;7346544;19;111320;-87
2021/12/25 06:29:05;;;;;;;;;;;5.30;99.90;;;;;;7342675;19;112011;-85
2021/12/25 06:31:32;;;;;;;;;;;5.20;99.90;;;;;;7345979;19;109491;-88
2021/12/25 06:33:59;;;;;;;;;;;5.10;99.90;;;;;;7347486;19;110048;-85
2021/12/25 06:36:25;;;;;;;;;;;5.10;99.90;;;;;;7346503;19;112279;-86
2021/12/25 06:38:52;;;;;;;;;;;5.10;99.90;;;;;;7345866;19;109993;-87
2021/12/25 06:41:19;;;;;;;;;;;5.10;99.90;;;;;;7347167;19;110666;-88
2021/12/25 06:43:46;;;;;;;;;;;5.00;99.90;;;;;;7352950;19;116437;-86
2021/12/25 06:46:13;;;;;;;;;;;5.00;99.90;;;;;;7346635;19;109650;-87
2021/12/25 06:48:41;;;;;;;;;;;4.90;99.90;;;;;;7344598;19;114155;-85
2021/12/25 06:51:09;;;;;;;;;;;4.80;99.90;;;;;;7344820;19;109385;-87
2021/12/25 06:53:37;;;;;;;;;;;4.80;99.90;;;;;;7345474;19;109336;-85
2021/12/25 06:56:04;;;;;;;;;;;4.80;99.90;;;;;;7343830;19;110480;-87
2021/12/25 06:58:31;;;;;;;;;;;4.80;99.90;;;;;;7346472;19;109306;-87
2021/12/25 07:00:58;;;;;;;;;;;4.80;99.90;;;;;;7346100;19;115902;-88
2021/12/25 07:03:25;;;;;;;;;;;4.80;99.90;;;;;;7350638;19;114231;-87
2021/12/25 07:05:52;;;;;;;;;;;4.80;99.90;;;;;;7345329;19;110692;-87
2021/12/25 07:08:19;;;;;;;;;;;4.70;99.90;;;;;;7344035;19;113031;-86
2021/12/25 07:10:46;;;;;;;;;;;4.80;99.90;;;;;;7343464;19;109312;-86
2021/12/25 07:13:17;;;;;;;;;;;4.70;99.90;;;;;;7344638;19;109518;-86
2021/12/25 07:15:45;;;;;;;;;;;4.60;99.90;;;;;;7344353;19;112914;-87
2021/12/25 07:18:12;;;;;;;;;;;4.70;99.90;;;;;;7343139;19;109368;-87
2021/12/25 07:20:39;;;;;;;;;;;4.70;99.90;;;;;;7344377;19;110460;-86
2021/12/25 07:23:06;;;;;;;;;;;4.80;99.90;;;;;;7342382;19;110477;-86
2021/12/25 07:25:33;;;;;;;;;;;4.80;99.90;;;;;;7351290;19;109830;-86
2021/12/25 07:28:00;;;;;;;;;;;4.70;99.90;;;;;;7344171;19;110797;-86
2021/12/25 07:30:27;;;;;;;;;;;4.60;99.90;;;;;;7341202;19;109414;-86
2021/12/25 07:32:53;;;;;;;;;;;4.50;99.90;;;;;;7342621;19;111244;-86
2021/12/25 07:35:20;;;;;;;;;;;4.50;99.90;;;;;;7342529;19;111886;-86
2021/12/25 07:37:47;;;;;;;;;;;4.50;99.90;;;;;;7342970;19;109722;-86
2021/12/25 07:40:14;;;;;;;;;;;4.50;99.90;;;;;;7344805;19;110927;-86
2021/12/25 07:42:41;;;;;;;;;;;4.50;99.90;;;;;;7346440;19;112255;-85
2021/12/25 07:45:08;;;;;;;;;;;4.40;99.90;;;;;;7350605;19;110106;-86
2021/12/25 07:47:39;;;;;;;;;;;4.40;99.90;;;;;;7354899;19;110454;-86
2021/12/25 07:50:07;;;;;;;;;;;4.40;99.90;;;;;;7347497;19;109657;-86
2021/12/25 07:52:34;;;;;;;;;;;4.40;99.90;;;;;;7350547;19;109485;-85
2021/12/25 07:55:00;;;;;;;;;;;4.40;99.90;;;;;;7349155;19;112570;-86
2021/12/25 07:57:27;;;;;;;;;;;4.30;99.90;;;;;;7350764;19;110313;-86
2021/12/25 07:59:55;;;;;;;;;;;4.10;99.90;;;;;;7349495;19;111129;-86
2021/12/25 08:02:25;;;;;;;;;;;4.00;99.90;;;;;;7349686;19;111927;-88
2021/12/25 08:04:52;;;;;;;;;;;4.00;99.90;;;;;;7351753;19;109427;-85
2021/12/25 08:07:19;;;;;;;;;;;4.00;99.90;;;;;;7350535;19;111020;-85
2021/12/25 08:09:46;;;;;;;;;;;4.10;99.90;;;;;;7354468;19;112098;-86
2021/12/25 08:12:13;;;;;;;;;;;4.10;99.90;;;;;;7349370;19;110871;-86
2021/12/25 08:14:40;;;;;;;;;;;4.00;99.90;;;;;;7349606;19;114172;-86
2021/12/25 08:17:07;;;;;;;;;;;4.00;99.90;;;;;;7349698;19;109294;-86
2021/12/25 08:19:33;;;;;;;;;;;4.00;99.90;;;;;;7350034;19;109310;-86
2021/12/25 08:22:00;;;;;;;;;;;4.10;99.90;;;;;;7349762;19;112573;-86
2021/12/25 08:24:27;;;;;;;;;;;4.00;99.90;;;;;;7349075;19;109489;-85
2021/12/25 08:26:54;;;;;;;;;;;4.00;99.90;;;;;;7349429;19;111455;-86
2021/12/25 08:29:23;;;;;;;;;;;4.10;99.90;;;;;;7347848;19;111084;-86
2021/12/25 08:31:50;;;;;;;;;;;4.00;99.90;;;;;;7354456;19;109361;-86
2021/12/25 08:34:17;;;;;;;;;;;3.90;99.90;;;;;;7346538;19;115417;-86
2021/12/25 08:36:43;;;;;;;;;;;3.90;99.90;;;;;;7350846;19;109297;-86
2021/12/25 08:39:11;;;;;;;;;;;3.90;99.90;;;;;;7350229;19;110057;-86
2021/12/25 08:41:38;;;;;;;;;;;3.80;99.90;;;;;;7348509;19;112574;-85
2021/12/25 08:44:29;;;;;;;;;;;3.80;99.90;;;;;;7348053;19;109701;-85
2021/12/25 08:46:55;;;;;;;;;;;3.80;99.90;;;;;;7350211;19;111044;-87
2021/12/25 08:49:24;;;;;;;;;;;3.90;99.90;;;;;;7345940;19;115636;-87
2021/12/25 08:51:52;;;;;;;;;;;4.00;99.90;;;;;;7350751;19;109416;-87
2021/12/25 08:54:19;;;;;;;;;;;4.00;99.90;;;;;;7355195;19;112887;-87
2021/12/25 08:56:46;;;;;;;;;;;4.10;99.90;;;;;;7347938;19;109344;-86
2021/12/25 08:59:14;;;;;;;;;;;4.00;99.90;;;;;;7347839;19;111333;-86
2021/12/25 09:01:41;;;;;;;;;;;4.00;99.90;;;;;;7348601;19;110518;-86
2021/12/25 09:04:08;;;;;;;;;;;3.90;99.90;;;;;;7350030;19;109339;-86
2021/12/25 09:06:38;;;;;;;;;;;4.00;99.90;;;;;;7347020;19;115671;-86
2021/12/25 09:09:08;;;;;;;;;;;3.90;99.90;;;;;;7347310;19;114705;-86
2021/12/25 09:11:35;;;;;;;;;;;3.90;99.90;;;;;;7347747;19;109579;-88
2021/12/25 09:14:03;;;;;;;;;;;4.00;99.90;;;;;;7353207;19;109355;-86
2021/12/25 09:16:30;;;;;;;;;;;4.00;99.90;;;;;;7349536;19;109300;-87
2021/12/25 09:18:57;;;;;;;;;;;4.00;99.90;;;;;;7349567;19;110912;-87
2021/12/25 09:21:24;;;;;;;;;;;4.10;99.90;;;;;;7348949;19;112396;-87
2021/12/25 09:23:51;;;;;;;;;;;3.90;99.90;;;;;;7347451;19;109816;-86
2021/12/25 09:26:18;;;;;;;;;;;3.90;99.90;;;;;;7347576;19;111148;-87
2021/12/25 09:28:46;;;;;;;;;;;3.90;99.90;;;;;;7347627;19;115607;-87
2021/12/25 09:31:13;;;;;;;;;;;3.90;99.90;;;;;;7347405;19;110023;-86
2021/12/25 09:33:40;;;;;;;;;;;4.00;99.90;;;;;;7348128;19;113485;-88
2021/12/25 09:36:13;;;;;;;;;;;4.10;99.90;;;;;;7352698;19;115567;-85
2021/12/25 09:38:40;;;;;;;;;;;4.20;99.90;;;;;;7346892;19;110998;-86
2021/12/25 09:41:07;;;;;;;;;;;4.00;99.90;;;;;;7345878;19;112056;-86
2021/12/25 09:43:34;;;;;;;;;;;3.90;99.90;;;;;;7347108;19;110152;-86
2021/12/25 09:46:01;;;;;;;;;;;3.90;99.90;;;;;;7346819;19;111192;-88
2021/12/25 09:48:28;;;;;;;;;;;3.80;99.90;;;;;;7347867;19;114964;-87
2021/12/25 09:50:55;;;;;;;;;;;3.70;99.90;;;;;;7345311;19;109226;-88
2021/12/25 09:53:22;;;;;;;;;;;3.70;99.90;;;;;;7348034;19;111637;-86
2021/12/25 09:55:51;;;;;;;;;;;3.70;99.90;;;;;;7346793;19;110520;-87
2021/12/25 09:58:18;;;;;;;;;;;3.70;99.90;;;;;;7352574;19;109498;-86
2021/12/25 10:00:46;;;;;;;;;;;3.70;99.90;;;;;;7343606;19;110848;-87
2021/12/25 10:03:21;;;;;;;;;;;3.80;99.90;;;;;;7348135;19;109358;-84
2021/12/25 10:05:49;;;;;;;;;;;3.70;99.90;;;;;;7343053;19;113965;-87
2021/12/25 10:08:18;;;;;;;;;;;3.70;99.90;;;;;;7339320;19;111924;-87
2021/12/25 10:10:48;;;;;;;;;;;3.70;99.90;;;;;;7344914;19;109347;-86
2021/12/25 10:13:28;;;;;;;;;;;3.70;99.90;;;;;;7347037;19;111254;-87
2021/12/25 10:15:57;;;;;;;;;;;3.70;99.90;;;;;;7347896;19;112652;-86
2021/12/25 10:18:28;;;;;;;;;;;3.70;99.90;;;;;;7346996;19;109711;-86
2021/12/25 10:20:55;;;;;;;;;;;3.60;99.90;;;;;;7352892;19;110011;-86
2021/12/25 10:23:27;;;;;;;;;;;3.50;99.90;;;;;;7342517;19;109621;-85
2021/12/25 10:25:56;;;;;;;;;;;3.50;99.90;;;;;;7344843;19;111889;-86
2021/12/25 10:28:31;;;;;;;;;;;3.60;99.90;;;;;;7345677;19;112009;-86
2021/12/25 10:31:01;;;;;;;;;;;3.60;99.90;;;;;;7344176;19;109431;-86
2021/12/25 10:33:32;;;;;;;;;;;3.60;99.90;;;;;;7345404;19;110963;-86
2021/12/25 10:36:01;;;;;;;;;;;3.60;99.90;;;;;;7343136;19;110952;-85
2021/12/25 10:38:29;;;;;;;;;;;3.50;99.90;;;;;;7346628;19;109289;-86
2021/12/25 10:41:19;;;;;;;;;;;3.50;99.90;;;;;;7344818;19;110270;-86
2021/12/25 10:43:47;;;;;;;;;;;3.30;99.90;;;;;;7349270;19;111984;-82
2021/12/25 10:46:15;;;;;;;;;;;3.20;99.90;;;;;;7346239;19;110831;-86
2021/12/25 10:48:42;;;;;;;;;;;3.20;99.90;;;;;;7346965;19;112299;-86
2021/12/25 10:51:22;;;;;;;;;;;3.30;99.90;;;;;;7342398;19;109546;-85
2021/12/25 10:53:53;;;;;;;;;;;3.30;99.90;;;;;;7348001;19;111117;-86
2021/12/25 10:56:20;;;;;;;;;;;3.30;99.90;;;;;;7343578;19;114217;-86
2021/12/25 10:58:47;;;;;;;;;;;3.20;99.90;;;;;;7344994;19;109420;-85
2021/12/25 11:01:15;;;;;;;;;;;3.30;99.90;;;;;;7344270;19;113655;-86
2021/12/25 11:03:43;;;;;;;;;;;3.50;99.90;;;;;;7345094;19;112590;-86
2021/12/25 11:06:16;;;;;;;;;;;3.50;99.90;;;;;;7350236;19;109147;-85
2021/12/25 11:08:44;;;;;;;;;;;3.60;99.90;;;;;;7343032;19;112319;-86
2021/12/25 11:11:12;;;;;;;;;;;3.60;99.90;;;;;;7341866;19;109634;-86
2021/12/25 11:13:42;;;;;;;;;;;3.60;99.90;;;;;;7342751;19;111400;-85
2021/12/25 11:16:12;;;;;;;;;;;3.60;99.90;;;;;;7339496;19;112259;-86
2021/12/25 11:18:49;;;;;;;;;;;3.70;99.90;;;;;;7345319;19;109411;-87
2021/12/25 11:21:16;;;;;;;;;;;3.80;99.90;;;;;;7345932;19;110643;-86
2021/12/25 11:23:44;;;;;;;;;;;3.80;99.90;;;;;;7341748;19;114435;-86
2021/12/25 11:26:11;;;;;;;;;;;3.60;99.90;;;;;;7349749;19;109527;-86
2021/12/25 11:28:38;;;;;;;;;;;3.60;99.90;;;;;;7344501;19;115659;-86
2021/12/25 11:31:04;;;;;;;;;;;3.50;99.90;;;;;;7343329;19;109636;-86
2021/12/25 11:33:31;;;;;;;;;;;3.50;99.90;;;;;;7342691;19;111042;-86
2021/12/25 11:36:01;;;;;;;;;;;3.60;99.90;;;;;;7343790;19;112403;-86
2021/12/25 11:38:28;;;;;;;;;;;3.60;99.90;;;;;;7343718;19;109344;-85
2021/12/25 11:41:03;;;;;;;;;;;3.60;99.90;;;;;;7344168;19;112711;-86
2021/12/25 11:43:42;;;;;;;;;;;3.60;99.90;;;;;;7344231;19;112556;-86
2021/12/25 11:46:11;;;;;;;;;;;3.70;99.90;;;;;;7343413;19;109285;-86
2021/12/25 11:48:39;;;;;;;;;;;3.80;99.90;;;;;;7348725;19;110905;-86
2021/12/25 11:51:06;;;;;;;;;;;3.80;99.90;;;;;;7344003;19;109317;-87
2021/12/25 11:53:45;;;;;;;;;;;3.60;99.90;;;;;;7344234;19;114239;-88
2021/12/25 11:59:08;;;;;;;;;;;3.50;99.90;;;;;;7344418;19;109243;-86
2021/12/25 12:01:43;;;;;;;;;;;3.40;99.90;;;;;;7343638;19;113005;-86
2021/12/25 12:04:10;;;;;;;;;;;3.30;99.90;;;;;;7343319;19;112348;-87
2021/12/25 12:06:43;;;;;;;;;;;3.30;99.90;;;;;;7343446;19;109301;-86
2021/12/25 12:09:12;;;;;;;;;;;3.30;99.90;;;;;;7344075;19;114642;-87
2021/12/25 12:11:41;;;;;;;;;;;3.30;99.90;;;;;;7345409;19;111585;-86
2021/12/25 12:14:16;;;;;;;;;;;3.20;99.90;;;;;;7342641;19;113209;-87
2021/12/25 12:16:45;;;;;;;;;;;3.20;99.90;;;;;;7339180;19;112666;-86
2021/12/25 12:19:39;;;;;;;;;;;3.10;99.90;;;;;;7344209;19;109859;-86
2021/12/25 12:22:15;;;;;;;;;;;3.10;99.90;;;;;;7341859;19;111140;-87
2021/12/25 12:27:10;;;;;;;;;;;3.20;99.90;;;;;;7342174;19;109869;-86
2021/12/25 12:29:37;;;;;;;;;;;3.20;99.90;;;;;;7351002;19;113924;-86
2021/12/25 12:32:26;;;;;;;;;;;3.10;99.90;;;;;;7346044;19;111994;-86
2021/12/25 12:34:53;;;;;;;;;;;3.20;99.90;;;;;;7354560;19;109739;-87
2021/12/25 12:37:20;;;;;;;;;;;3.30;99.90;;;;;;7349289;19;112986;-86
2021/12/25 12:39:59;;;;;;;;;;;3.40;99.90;;;;;;7348889;19;109452;-86
2021/12/25 12:42:46;;;;;;;;;;;3.50;99.90;;;;;;7349978;19;110942;-86
2021/12/25 12:45:26;;;;;;;;;;;3.40;99.90;;;;;;7348023;19;114682;-86
2021/12/25 12:48:11;;;;;;;;;;;3.30;99.90;;;;;;7351500;19;109391;-86
2021/12/25 12:50:39;;;;;;;;;;;3.40;99.90;;;;;;7349426;19;111264;-85
2021/12/25 12:53:07;;;;;;;;;;;3.40;99.90;;;;;;7347525;19;115232;-86
2021/12/25 12:55:39;;;;;;;;;;;3.40;99.90;;;;;;7344103;19;109865;-86
2021/12/25 12:58:11;;;;;;;;;;;3.40;99.90;;;;;;7346565;19;111775;-85
2021/12/25 13:00:39;;;;;;;;;;;3.50;99.90;;;;;;7348488;19;109868;-86
2021/12/25 13:03:06;;;;;;;;;;;3.60;99.90;;;;;;7343084;19;110785;-85
2021/12/25 13:05:39;;;;;;;;;;;3.70;99.90;;;;;;7346326;19;112320;-86
2021/12/25 13:08:10;;;;;;;;;;;3.60;99.90;;;;;;7337633;19;109336;-86
2021/12/25 13:10:42;;;;;;;;;;;3.50;99.90;;;;;;7344617;19;109607;-85
2021/12/25 13:13:22;;;;;;;;;;;3.30;99.90;;;;;;7340468;19;115567;-85
2021/12/25 13:15:57;;;;;;;;;;;3.40;99.90;;;;;;7347119;19;109983;-86
2021/12/25 13:18:28;;;;;;;;;;;3.40;99.90;;;;;;7353525;19;114038;-86
2021/12/25 13:20:55;;;;;;;;;;;3.30;99.90;;;;;;7348326;19;109399;-86
2021/12/25 13:23:24;;;;;;;;;;;3.20;99.90;;;;;;7344147;19;111315;-86
2021/12/25 13:25:53;;;;;;;;;;;3.20;99.90;;;;;;7347091;19;114736;-87
2021/12/25 13:28:21;;;;;;;;;;;3.30;99.90;;;;;;7347391;19;109373;-86
2021/12/25 13:30:50;;;;;;;;;;;3.30;99.90;;;;;;7348798;19;109537;-86
2021/12/25 13:33:19;;;;;;;;;;;3.30;99.90;;;;;;7348038;19;112317;-85
2021/12/25 13:35:47;;;;;;;;;;;3.40;99.90;;;;;;7348679;19;109387;-84
2021/12/25 13:38:14;;;;;;;;;;;3.30;99.90;;;;;;7348742;19;111227;-85
2021/12/25 13:40:48;;;;;;;;;;;3.20;99.90;;;;;;7345696;19;110588;-87
2021/12/25 13:43:16;;;;;;;;;;;3.20;99.90;;;;;;7347408;19;109361;-86
2021/12/25 13:45:43;;;;;;;;;;;3.30;99.90;;;;;;7348138;19;112078;-86
2021/12/25 13:48:10;;;;;;;;;;;3.30;99.90;;;;;;7348029;19;109302;-87
2021/12/25 13:50:39;;;;;;;;;;;3.40;99.90;;;;;;7343121;19;111805;-86
2021/12/25 13:53:17;;;;;;;;;;;3.40;99.90;;;;;;7339227;19;111298;-86
2021/12/25 13:55:47;;;;;;;;;;;3.30;99.90;;;;;;7346567;19;109322;-86
2021/12/25 13:58:16;;;;;;;;;;;3.30;99.90;;;;;;7344386;19;110975;-84
2021/12/25 14:00:49;;;;;;;;;;;3.10;99.90;;;;;;7346638;19;112042;-85
2021/12/25 14:03:18;;;;;;;;;;;3.00;99.90;;;;;;7351581;19;109485;-85
2021/12/25 14:05:46;;;;;;;;;;;3.00;99.90;;;;;;7348410;19;112538;-85
2021/12/25 14:08:14;;;;;;;;;;;3.00;99.90;;;;;;7347752;19;109849;-85
2021/12/25 14:10:42;;;;;;;;;;;3.00;99.90;;;;;;7348504;19;109427;-85
2021/12/25 14:13:16;;;;;;;;;;;2.90;99.90;;;;;;7342106;19;115225;-85
2021/12/25 14:15:45;;;;;;;;;;;2.90;99.90;;;;;;7348670;19;109336;-85
2021/12/25 14:18:12;;;;;;;;;;;2.90;99.90;;;;;;7347128;19;113269;-85
2021/12/25 14:20:40;;;;;;;;;;;2.90;99.90;;;;;;7346033;19;112503;-85
2021/12/25 14:23:09;;;;;;;;;;;2.80;99.90;;;;;;7346996;19;109441;-84
2021/12/25 14:25:40;;;;;;;;;;;2.90;99.90;;;;;;7350551;19;109387;-85
2021/12/25 14:28:10;;;;;;;;;;;2.90;99.90;;;;;;7345695;19;109392;-85
2021/12/25 14:30:43;;;;;;;;;;;2.80;99.90;;;;;;7345923;19;109693;-85
2021/12/25 14:33:15;;;;;;;;;;;2.80;99.90;;;;;;7343147;19;110503;-85
2021/12/25 14:35:43;;;;;;;;;;;2.80;99.90;;;;;;7347018;19;109330;-85
2021/12/25 14:38:10;;;;;;;;;;;2.80;99.90;;;;;;7346734;19;109938;-85
2021/12/25 14:40:45;;;;;;;;;;;2.80;99.90;;;;;;7345026;19;112070;-84
2021/12/25 14:43:14;;;;;;;;;;;2.90;99.90;;;;;;7341165;19;109865;-85
2021/12/25 14:45:44;;;;;;;;;;;2.90;99.90;;;;;;7343734;19;111024;-84
2021/12/25 14:48:11;;;;;;;;;;;2.80;99.90;;;;;;7349874;19;114205;-85
2021/12/25 14:50:39;;;;;;;;;;;2.80;99.90;;;;;;7345244;19;111748;-85
2021/12/25 14:53:09;;;;;;;;;;;2.70;99.90;;;;;;7341664;19;110144;-85
2021/12/25 14:55:43;;;;;;;;;;;2.70;99.90;;;;;;7346072;19;109402;-85
2021/12/25 14:58:20;;;;;;;;;;;2.80;99.90;;;;;;7341892;19;114064;-85
2021/12/25 15:00:50;;;;;;;;;;;2.70;99.90;;;;;;7343030;19;115821;-86
2021/12/25 15:03:19;;;;;;;;;;;2.70;99.90;;;;;;7343127;19;109653;-85
2021/12/25 15:05:49;;;;;;;;;;;2.70;99.90;;;;;;7347391;19;111260;-86
2021/12/25 15:08:26;;;;;;;;;;;2.60;99.90;;;;;;7345928;19;110447;-85
2021/12/25 15:10:54;;;;;;;;;;;2.60;99.90;;;;;;7352029;19;109800;-85
2021/12/25 15:13:23;;;;;;;;;;;2.50;99.90;;;;;;7338245;19;112288;-86
2021/12/25 15:15:55;;;;;;;;;;;2.50;99.90;;;;;;7342934;19;109383;-85
2021/12/25 15:18:24;;;;;;;;;;;2.50;99.90;;;;;;7345593;19;110995;-85
2021/12/25 15:21:07;;;;;;;;;;;2.50;99.90;;;;;;7343884;19;110518;-85
2021/12/25 15:23:34;;;;;;;;;;;2.60;99.90;;;;;;7345589;19;109315;-85
2021/12/25 15:26:07;;;;;;;;;;;2.60;99.90;;;;;;7345285;19;109554;-86
2021/12/25 15:28:34;;;;;;;;;;;2.60;99.90;;;;;;7344200;19;113182;-86
2021/12/25 15:31:15;;;;;;;;;;;2.60;99.90;;;;;;7350622;19;109326;-86
2021/12/25 15:33:43;;;;;;;;;;;2.60;99.90;;;;;;7342502;19;112147;-86
2021/12/25 15:36:13;;;;;;;;;;;2.70;99.90;;;;;;7343006;19;109310;-85
2021/12/25 15:38:40;;;;;;;;;;;2.70;99.90;;;;;;7343795;19;109768;-86
2021/12/25 15:41:07;;;;;;;;;;;2.80;99.90;;;;;;7342100;19;112435;-86
2021/12/25 15:43:34;;;;;;;;;;;2.80;99.90;;;;;;7343739;19;109323;-86
2021/12/25 15:46:03;;;;;;;;;;;2.90;99.90;;;;;;7343915;19;111801;-86
2021/12/25 15:48:32;;;;;;;;;;;3.00;99.90;;;;;;7343779;19;112098;-86
2021/12/25 15:50:58;;;;;;;;;;;3.00;99.90;;;;;;7344263;19;109641;-86